Time;durP1;ratioP1;P1;durP2;ratioP2;P2;SDS_P1;SDS_P2;PMS_P1;PMS_P2;Temp;Humidity;BMP_temperature;BMP_pressure;BME280_temperature;BME280_humidity;BME280_pressure;Samples;Min_cycle;Max_cycle;Signal;HPM_P1;HPM_P2
2021/10/01 00:01:11;;;;;;;4.43;1.60;;;12.50;99.90;;;;;;5051606;28;20048;-86
2021/10/01 00:03:36;;;;;;;5.23;1.83;;;12.40;99.90;;;;;;5053177;28;20024;-86
2021/10/01 00:06:02;;;;;;;4.78;1.70;;;12.50;99.90;;;;;;5051864;28;20025;-85
2021/10/01 00:08:28;;;;;;;3.80;1.42;;;12.40;99.90;;;;;;5051765;28;20432;-86
2021/10/01 00:10:53;;;;;;;5.32;1.65;;;12.40;99.90;;;;;;5052669;28;20025;-87
2021/10/01 00:13:19;;;;;;;6.10;1.77;;;12.40;99.90;;;;;;5051764;28;20468;-86
2021/10/01 00:15:45;;;;;;;7.90;2.00;;;12.30;99.90;;;;;;5051744;28;20216;-86
2021/10/01 00:18:11;;;;;;;6.57;1.80;;;12.30;99.90;;;;;;5051832;28;20591;-86
2021/10/01 00:20:37;;;;;;;7.40;2.00;;;12.30;99.90;;;;;;5051233;28;20508;-87
2021/10/01 00:23:03;;;;;;;4.33;1.37;;;12.30;99.90;;;;;;5051563;28;20074;-86
2021/10/01 00:25:29;;;;;;;3.03;1.40;;;12.30;99.90;;;;;;5052732;28;20033;-86
2021/10/01 00:27:55;;;;;;;6.37;1.67;;;12.20;99.90;;;;;;5052762;28;20035;-86
2021/10/01 00:30:20;;;;;;;7.80;1.93;;;12.30;99.90;;;;;;5052358;28;20539;-87
2021/10/01 00:32:48;;;;;;;6.17;1.80;;;12.30;99.90;;;;;;5051415;28;20025;-86
2021/10/01 00:35:14;;;;;;;7.33;1.90;;;12.20;99.90;;;;;;5051537;28;20121;-86
2021/10/01 00:37:39;;;;;;;4.57;1.50;;;12.30;99.90;;;;;;5052491;28;20466;-86
2021/10/01 00:40:06;;;;;;;7.10;1.63;;;12.20;99.90;;;;;;5050899;28;20380;-86
2021/10/01 00:42:31;;;;;;;7.40;1.50;;;12.30;99.90;;;;;;5052292;28;20043;-86
2021/10/01 00:44:57;;;;;;;5.13;1.30;;;12.30;99.90;;;;;;5050961;28;20477;-86
2021/10/01 00:47:23;;;;;;;6.83;1.40;;;12.40;99.90;;;;;;5051153;28;20466;-86
2021/10/01 00:49:49;;;;;;;4.27;1.37;;;12.30;99.90;;;;;;5050540;28;20481;-86
2021/10/01 00:52:17;;;;;;;6.97;1.70;;;12.40;99.90;;;;;;5051163;28;20086;-86
2021/10/01 00:54:43;;;;;;;6.33;1.47;;;12.30;99.90;;;;;;5051189;28;20104;-86
2021/10/01 00:57:09;;;;;;;4.33;1.50;;;12.30;99.90;;;;;;5050936;28;20112;-85
2021/10/01 00:59:34;;;;;;;6.97;1.47;;;12.40;99.90;;;;;;5050564;28;20029;-86
2021/10/01 01:02:00;;;;;;;6.27;1.40;;;12.30;99.90;;;;;;5050938;28;20473;-86
2021/10/01 01:04:26;;;;;;;4.47;1.50;;;12.30;99.90;;;;;;5052196;28;20021;-86
2021/10/01 01:07:22;;;;;;;4.80;1.87;;;12.30;99.90;;;;;;5052175;28;20033;-86
2021/10/01 01:10:07;;;;;;;3.97;1.30;;;12.30;99.90;;;;;;5051567;28;20476;-86
2021/10/01 01:12:53;;;;;;;3.83;1.50;;;12.40;99.90;;;;;;5050848;28;20029;-86
2021/10/01 01:15:32;;;;;;;7.57;1.87;;;12.30;99.90;;;;;;5051056;28;20033;-86
2021/10/01 01:18:13;;;;;;;4.78;1.42;;;12.40;99.90;;;;;;5073325;22;20048;-85
2021/10/01 01:20:50;;;;;;;7.30;2.17;;;12.30;99.90;;;;;;5051507;28;20021;-86
2021/10/01 01:23:51;;;;;;;7.23;1.47;;;12.30;99.90;;;;;;5050937;28;20485;-85
2021/10/01 01:26:36;;;;;;;6.97;1.50;;;12.30;99.90;;;;;;5052177;28;20047;-86
2021/10/01 01:29:26;;;;;;;6.20;1.30;;;12.30;99.90;;;;;;5051965;28;20062;-85
2021/10/01 01:31:55;;;;;;;3.83;1.27;;;12.30;99.90;;;;;;5050691;28;20028;-85
2021/10/01 01:34:34;;;;;;;4.88;1.70;;;12.30;99.90;;;;;;5050783;28;20017;-85
2021/10/01 01:37:06;;;;;;;7.23;1.90;;;12.20;99.90;;;;;;5050794;28;20025;-85
2021/10/01 01:39:35;;;;;;;6.03;1.37;;;12.20;99.90;;;;;;5050210;28;20031;-86
2021/10/01 01:42:02;;;;;;;5.95;1.65;;;12.30;99.90;;;;;;5051766;28;20056;-85
2021/10/01 01:44:30;;;;;;;6.70;1.37;;;12.20;99.90;;;;;;5051853;28;20025;-86
2021/10/01 01:47:00;;;;;;;3.70;1.20;;;12.30;99.90;;;;;;5050497;28;20032;-86
2021/10/01 01:49:28;;;;;;;6.40;1.60;;;12.20;99.90;;;;;;5049999;28;20495;-86
2021/10/01 01:51:56;;;;;;;4.28;1.88;;;12.20;99.90;;;;;;5050575;28;20477;-85
2021/10/01 01:54:24;;;;;;;5.87;1.40;;;12.20;99.90;;;;;;5052606;28;20029;-86
2021/10/01 01:56:51;;;;;;;5.43;1.30;;;12.20;99.90;;;;;;5054283;28;20033;-85
2021/10/01 01:59:17;;;;;;;6.87;1.87;;;12.20;99.90;;;;;;5053966;28;20074;-85
2021/10/01 02:01:44;;;;;;;4.17;1.23;;;12.20;99.90;;;;;;5054374;28;20033;-85
2021/10/01 02:04:11;;;;;;;4.53;1.47;;;12.20;99.90;;;;;;5054351;28;20029;-86
2021/10/01 02:06:37;;;;;;;6.80;1.37;;;12.20;99.90;;;;;;5054222;28;20444;-85
2021/10/01 02:09:03;;;;;;;4.83;1.40;;;12.20;99.90;;;;;;5054779;28;20029;-85
2021/10/01 02:11:30;;;;;;;4.13;1.40;;;12.20;99.90;;;;;;5054083;28;20064;-85
2021/10/01 02:13:58;;;;;;;6.63;1.37;;;12.10;99.90;;;;;;5055417;28;20040;-86
2021/10/01 02:16:25;;;;;;;4.93;1.10;;;12.20;99.90;;;;;;5055294;28;20033;-86
2021/10/01 02:18:54;;;;;;;6.63;1.60;;;12.20;99.90;;;;;;5053729;28;20041;-85
2021/10/01 02:21:22;;;;;;;6.17;1.63;;;12.20;99.90;;;;;;5053976;28;20535;-86
2021/10/01 02:23:49;;;;;;;5.07;1.30;;;12.10;99.90;;;;;;5054067;28;20671;-85
2021/10/01 02:26:35;;;;;;;5.40;1.43;;;12.20;99.90;;;;;;5053862;28;20029;-86
2021/10/01 02:29:15;;;;;;;5.20;1.57;;;12.10;99.90;;;;;;5053244;28;20025;-85
2021/10/01 02:32:00;;;;;;;6.23;1.10;;;12.10;99.90;;;;;;5055107;28;20024;-86
2021/10/01 02:34:46;;;;;;;5.67;1.40;;;12.10;99.90;;;;;;5053953;28;20025;-85
2021/10/01 02:37:13;;;;;;;4.43;1.40;;;12.10;99.90;;;;;;5053729;28;20033;-85
2021/10/01 02:39:42;;;;;;;5.47;1.30;;;12.10;99.90;;;;;;5053027;28;20035;-86
2021/10/01 02:42:09;;;;;;;6.18;1.42;;;12.10;99.90;;;;;;5053818;28;20048;-86
2021/10/01 02:44:36;;;;;;;3.53;1.17;;;12.10;99.90;;;;;;5053450;28;20489;-85
2021/10/01 02:47:04;;;;;;;5.50;1.40;;;12.10;99.90;;;;;;5053511;28;20025;-86
2021/10/01 02:49:30;;;;;;;4.53;1.30;;;12.00;99.90;;;;;;5053064;28;20087;-86
2021/10/01 02:52:03;;;;;;;4.40;1.20;;;12.00;99.90;;;;;;5053938;28;20031;-85
2021/10/01 02:55:01;;;;;;;4.40;1.20;;;12.00;99.90;;;;;;5054047;28;20067;-85
2021/10/01 02:57:35;;;;;;;3.58;1.40;;;12.00;99.90;;;;;;5039285;28;20131;-86
2021/10/01 03:00:05;;;;;;;4.57;1.27;;;11.90;99.90;;;;;;5052550;28;20029;-85
2021/10/01 03:02:32;;;;;;;4.70;1.20;;;12.00;99.90;;;;;;5053762;28;20028;-85
2021/10/01 03:05:00;;;;;;;4.77;1.40;;;11.90;99.90;;;;;;5055065;28;20535;-85
2021/10/01 03:07:27;;;;;;;6.40;1.17;;;11.90;99.90;;;;;;5054019;28;20107;-86
2021/10/01 03:09:53;;;;;;;3.13;1.20;;;11.90;99.90;;;;;;5053150;28;20075;-85
2021/10/01 03:12:21;;;;;;;6.07;1.27;;;12.00;99.90;;;;;;5055334;28;20025;-85
2021/10/01 03:14:49;;;;;;;4.60;1.10;;;11.90;99.90;;;;;;5053808;28;20055;-85
2021/10/01 03:17:15;;;;;;;3.53;1.23;;;12.00;99.90;;;;;;5053790;28;20440;-85
2021/10/01 03:19:42;;;;;;;4.10;1.00;;;12.00;99.90;;;;;;5052577;28;20029;-85
2021/10/01 03:22:08;;;;;;;4.47;1.50;;;11.90;99.90;;;;;;5052783;28;20040;-85
2021/10/01 03:24:34;;;;;;;6.93;1.70;;;11.90;99.90;;;;;;5054163;28;20029;-85
2021/10/01 03:27:00;;;;;;;3.13;1.00;;;11.90;99.90;;;;;;5052629;28;20419;-85
2021/10/01 03:29:26;;;;;;;6.20;1.10;;;12.00;99.90;;;;;;5053617;28;20386;-84
2021/10/01 03:31:52;;;;;;;3.97;1.20;;;12.00;99.90;;;;;;5052733;28;20489;-84
2021/10/01 03:34:18;;;;;;;4.13;1.30;;;12.00;99.90;;;;;;5052751;28;20031;-85
2021/10/01 03:36:44;;;;;;;3.93;1.10;;;12.00;99.90;;;;;;5052662;28;20033;-86
2021/10/01 03:39:10;;;;;;;5.83;1.80;;;12.00;99.90;;;;;;5052116;28;20082;-86
2021/10/01 03:41:36;;;;;;;5.80;1.30;;;12.00;99.90;;;;;;5052681;28;20025;-86
2021/10/01 03:44:03;;;;;;;6.17;1.40;;;12.00;99.90;;;;;;5052889;28;20117;-86
2021/10/01 03:46:28;;;;;;;6.73;1.30;;;12.00;99.90;;;;;;5052984;28;20025;-86
2021/10/01 03:48:54;;;;;;;4.43;1.53;;;12.00;99.90;;;;;;5051868;28;20025;-85
2021/10/01 03:51:19;;;;;;;4.87;1.20;;;12.00;99.90;;;;;;5054020;28;20104;-85
2021/10/01 03:53:45;;;;;;;3.70;1.00;;;12.00;99.90;;;;;;5052860;28;20389;-85
2021/10/01 03:56:17;;;;;;;4.43;1.10;;;12.00;99.90;;;;;;5053114;28;20021;-85
2021/10/01 03:58:44;;;;;;;6.40;1.30;;;12.00;99.90;;;;;;5053033;28;20436;-85
2021/10/01 04:01:10;;;;;;;6.30;1.40;;;12.00;99.90;;;;;;5053499;28;20075;-86
2021/10/01 04:03:35;;;;;;;4.73;1.20;;;12.00;99.90;;;;;;5052734;28;20025;-85
2021/10/01 04:06:01;;;;;;;4.83;1.00;;;12.00;99.90;;;;;;5052639;28;20477;-85
2021/10/01 04:08:26;;;;;;;4.10;1.10;;;12.00;99.90;;;;;;5052441;28;20027;-86
2021/10/01 04:10:52;;;;;;;3.77;1.33;;;12.00;99.90;;;;;;5053323;28;20020;-86
2021/10/01 04:13:18;;;;;;;5.37;1.13;;;12.00;99.90;;;;;;5052467;28;20024;-86
2021/10/01 04:15:43;;;;;;;4.57;1.30;;;12.00;99.90;;;;;;5052414;28;20021;-86
2021/10/01 04:18:09;;;;;;;6.73;1.30;;;12.00;99.90;;;;;;5053323;28;20033;-85
2021/10/01 04:20:36;;;;;;;7.20;2.20;;;12.00;99.90;;;;;;5051825;28;20032;-86
2021/10/01 04:23:02;;;;;;;7.10;1.70;;;12.00;99.90;;;;;;5051988;28;20025;-85
2021/10/01 04:25:30;;;;;;;5.77;1.20;;;12.00;99.90;;;;;;5052348;28;20025;-85
2021/10/01 04:27:55;;;;;;;5.67;1.37;;;12.10;99.90;;;;;;5052092;28;20036;-86
2021/10/01 04:30:21;;;;;;;5.43;1.53;;;12.10;99.90;;;;;;5051791;28;20021;-86
2021/10/01 04:32:57;;;;;;;5.93;1.27;;;12.00;99.90;;;;;;5051944;28;20474;-86
2021/10/01 04:35:22;;;;;;;4.80;1.07;;;12.00;99.90;;;;;;5053400;28;20488;-86
2021/10/01 04:37:48;;;;;;;9.53;1.70;;;12.00;99.90;;;;;;5051321;28;20116;-85
2021/10/01 04:40:13;;;;;;;4.97;1.67;;;12.00;99.90;;;;;;5050879;28;20095;-86
2021/10/01 04:42:39;;;;;;;4.93;1.60;;;12.10;99.90;;;;;;5051378;28;20021;-85
2021/10/01 04:45:05;;;;;;;4.40;1.70;;;12.10;99.90;;;;;;5051233;28;20494;-85
2021/10/01 04:47:31;;;;;;;4.30;1.20;;;12.10;99.90;;;;;;5050974;28;20025;-85
2021/10/01 04:49:57;;;;;;;4.73;1.20;;;12.10;99.90;;;;;;5050890;28;20350;-86
2021/10/01 04:52:22;;;;;;;4.50;1.43;;;12.10;99.90;;;;;;5051251;28;20474;-85
2021/10/01 04:54:48;;;;;;;7.93;1.80;;;12.10;99.90;;;;;;5052400;28;20028;-86
2021/10/01 04:57:14;;;;;;;6.57;1.30;;;12.10;99.90;;;;;;5051141;28;20033;-86
2021/10/01 04:59:39;;;;;;;4.80;1.40;;;12.10;99.90;;;;;;5051834;28;20035;-85
2021/10/01 05:02:05;;;;;;;4.03;1.57;;;12.10;99.90;;;;;;5050966;28;20396;-85
2021/10/01 05:04:31;;;;;;;5.23;1.37;;;12.20;99.90;;;;;;5051024;28;20029;-85
2021/10/01 05:06:56;;;;;;;5.90;1.57;;;12.10;99.90;;;;;;5051042;28;20040;-86
2021/10/01 05:09:22;;;;;;;5.60;1.40;;;12.20;99.90;;;;;;5050528;28;20040;-86
2021/10/01 05:11:48;;;;;;;5.13;1.17;;;12.10;99.90;;;;;;5051254;28;20025;-85
2021/10/01 05:14:13;;;;;;;4.60;1.50;;;12.10;99.90;;;;;;5050932;28;20116;-85
2021/10/01 05:16:40;;;;;;;6.50;1.10;;;12.10;99.90;;;;;;5052386;28;20111;-85
2021/10/01 05:19:06;;;;;;;5.93;1.20;;;12.10;99.90;;;;;;5050113;28;20051;-85
2021/10/01 05:21:31;;;;;;;4.40;1.50;;;12.10;99.90;;;;;;5050838;28;20124;-86
2021/10/01 05:23:57;;;;;;;5.00;1.20;;;12.10;99.90;;;;;;5051004;28;20032;-85
2021/10/01 05:26:23;;;;;;;4.97;1.20;;;12.10;99.90;;;;;;5052323;28;20033;-86
2021/10/01 05:28:48;;;;;;;4.33;0.90;;;12.10;99.90;;;;;;5050114;28;20438;-88
2021/10/01 05:31:14;;;;;;;4.20;1.30;;;12.10;99.90;;;;;;5050502;28;20025;-85
2021/10/01 05:33:39;;;;;;;6.93;1.53;;;12.00;99.90;;;;;;5050801;28;20381;-85
2021/10/01 05:36:05;;;;;;;5.80;1.67;;;12.10;99.90;;;;;;5050797;28;20021;-85
2021/10/01 05:38:31;;;;;;;4.23;1.30;;;12.10;99.90;;;;;;5050745;28;20029;-86
2021/10/01 05:40:57;;;;;;;7.40;1.63;;;12.10;99.90;;;;;;5050238;28;20040;-85
2021/10/01 05:43:25;;;;;;;5.60;1.30;;;12.10;99.90;;;;;;5050576;28;20025;-85
2021/10/01 05:45:57;;;;;;;8.17;1.50;;;12.10;99.90;;;;;;5050489;28;20409;-86
2021/10/01 05:48:25;;;;;;;5.63;1.80;;;12.10;99.80;;;;;;5050513;28;20728;-86
2021/10/01 05:50:58;;;;;;;6.23;1.50;;;12.10;99.90;;;;;;5050064;28;20017;-85
2021/10/01 05:56:08;;;;;;;8.63;1.70;;;12.10;99.90;;;;;;5051753;28;20045;-86
2021/10/01 05:58:41;;;;;;;6.33;1.20;;;12.10;99.80;;;;;;5050359;28;20116;-85
2021/10/01 06:01:07;;;;;;;3.60;1.10;;;12.10;99.60;;;;;;5050024;28;20033;-85
2021/10/01 06:03:33;;;;;;;6.23;1.30;;;12.10;99.90;;;;;;5050457;28;20025;-86
2021/10/01 06:05:59;;;;;;;7.60;1.33;;;12.00;99.80;;;;;;5051559;28;20083;-85
2021/10/01 06:08:25;;;;;;;6.07;1.20;;;12.10;99.80;;;;;;5050224;28;20087;-85
2021/10/01 06:10:50;;;;;;;5.87;1.33;;;12.10;99.80;;;;;;5049787;28;20120;-85
2021/10/01 06:13:17;;;;;;;5.40;1.20;;;12.10;99.70;;;;;;5051564;28;20043;-85
2021/10/01 06:15:44;;;;;;;7.00;1.50;;;12.10;99.60;;;;;;5050537;28;20041;-85
2021/10/01 06:18:10;;;;;;;4.43;1.33;;;12.10;99.60;;;;;;5050089;28;20128;-85
2021/10/01 06:20:36;;;;;;;5.37;1.00;;;12.10;99.50;;;;;;5049772;28;20447;-86
2021/10/01 06:23:01;;;;;;;4.83;1.20;;;12.20;99.70;;;;;;5050275;28;20037;-85
2021/10/01 06:25:27;;;;;;;4.60;1.40;;;12.20;99.20;;;;;;5051618;28;20358;-86
2021/10/01 06:27:53;;;;;;;7.50;1.20;;;12.20;99.30;;;;;;5051421;28;20048;-85
2021/10/01 06:30:19;;;;;;;7.23;1.10;;;12.20;99.20;;;;;;5049684;28;20067;-86
2021/10/01 06:32:45;;;;;;;4.40;1.10;;;12.20;99.20;;;;;;5051465;28;20462;-85
2021/10/01 06:35:11;;;;;;;4.20;1.27;;;12.30;99.60;;;;;;5050035;28;20029;-85
2021/10/01 06:37:37;;;;;;;3.43;1.30;;;12.30;99.20;;;;;;5050146;28;20067;-85
2021/10/01 06:40:05;;;;;;;5.60;1.30;;;12.30;99.30;;;;;;5049720;28;20040;-85
2021/10/01 06:42:33;;;;;;;7.77;1.40;;;12.40;99.00;;;;;;5053831;28;20024;-85
2021/10/01 06:45:02;;;;;;;5.43;1.20;;;12.40;99.00;;;;;;5053692;28;20028;-86
2021/10/01 06:47:37;;;;;;;10.93;4.03;;;12.40;98.80;;;;;;5054862;28;20057;-85
2021/10/01 06:50:23;;;;;;;5.87;2.00;;;12.50;98.60;;;;;;5053309;28;20029;-85
2021/10/01 08:20:57;;;;;;;3.05;1.00;;;13.50;97.50;;;;;;5052601;28;20035;-85
2021/10/01 08:23:22;;;;;;;10.27;1.67;;;13.60;97.40;;;;;;5052821;28;20025;-85
2021/10/01 08:25:48;;;;;;;5.60;1.55;;;13.60;97.50;;;;;;5051585;28;20032;-86
2021/10/01 08:28:14;;;;;;;4.95;1.10;;;13.60;97.40;;;;;;5051407;28;20067;-85
2021/10/01 08:30:39;;;;;;;4.32;1.33;;;13.60;97.40;;;;;;5051108;28;20033;-85
2021/10/01 08:33:05;;;;;;;3.97;1.23;;;13.70;97.40;;;;;;5051440;28;20028;-85
2021/10/01 08:35:32;;;;;;;2.78;1.40;;;13.70;97.40;;;;;;5051437;28;20390;-85
2021/10/01 08:37:59;;;;;;;3.67;1.38;;;13.70;97.30;;;;;;5051665;28;20547;-85
2021/10/01 08:40:26;;;;;;;8.70;1.70;;;13.70;97.30;;;;;;5050837;28;20107;-85
2021/10/01 08:42:54;;;;;;;7.78;1.60;;;13.70;97.30;;;;;;5051104;28;20429;-85
2021/10/01 08:45:23;;;;;;;5.90;1.33;;;13.70;97.20;;;;;;5052525;28;20024;-85
2021/10/01 08:47:50;;;;;;;9.82;4.80;;;13.80;97.30;;;;;;5051187;28;20028;-84
2021/10/01 08:50:21;;;;;;;10.60;4.75;;;13.80;97.20;;;;;;5051957;28;20048;-85
2021/10/01 08:52:48;;;;;;;6.88;2.10;;;13.80;97.20;;;;;;5053730;28;20025;-85
2021/10/01 08:55:15;;;;;;;9.07;4.45;;;13.90;97.20;;;;;;5052979;28;20024;-86
2021/10/01 08:57:41;;;;;;;4.72;2.13;;;13.90;97.20;;;;;;5051120;28;20021;-85
2021/10/01 09:00:14;;;;;;;6.45;1.70;;;13.90;96.90;;;;;;5050406;28;20037;-86
2021/10/01 09:02:40;;;;;;;10.52;2.58;;;14.00;96.90;;;;;;5051009;28;20029;-85
2021/10/01 09:05:07;;;;;;;5.78;1.83;;;14.00;97.00;;;;;;5050237;28;20028;-85
2021/10/01 09:07:32;;;;;;;7.55;2.15;;;14.10;96.60;;;;;;5050681;28;20048;-86
2021/10/01 09:09:58;;;;;;;12.18;2.28;;;14.10;96.80;;;;;;5050165;28;20021;-86
2021/10/01 09:12:24;;;;;;;4.55;1.58;;;14.20;96.70;;;;;;5051977;28;20017;-85
2021/10/01 09:14:52;;;;;;;8.23;1.48;;;14.30;96.30;;;;;;5051971;28;20057;-85
2021/10/01 09:17:21;;;;;;;5.85;1.40;;;14.30;96.50;;;;;;5050637;28;20033;-85
2021/10/01 09:19:48;;;;;;;4.03;1.20;;;14.40;96.30;;;;;;5050903;28;20029;-86
2021/10/01 09:22:35;;;;;;;4.78;1.25;;;14.40;96.20;;;;;;5051044;28;20120;-85
2021/10/01 09:25:19;;;;;;;3.35;1.63;;;14.40;96.60;;;;;;5050770;28;20028;-86
2021/10/01 09:27:48;;;;;;;3.63;1.30;;;14.40;96.40;;;;;;5052210;28;20068;-86
2021/10/01 09:30:17;;;;;;;6.55;1.80;;;14.40;96.60;;;;;;5050994;28;20363;-85
2021/10/01 09:33:07;;;;;;;5.40;1.00;;;14.50;96.20;;;;;;5050419;28;20075;-86
2021/10/01 09:35:33;;;;;;;7.55;1.45;;;14.50;96.20;;;;;;5050658;28;20075;-86
2021/10/01 09:38:09;;;;;;;5.63;1.27;;;14.50;96.20;;;;;;5050606;28;20025;-86
2021/10/01 09:40:36;;;;;;;7.25;1.38;;;14.50;96.30;;;;;;5050138;28;20039;-85
2021/10/01 09:43:01;;;;;;;6.30;1.23;;;14.60;96.30;;;;;;5050455;28;20023;-85
2021/10/01 09:45:27;;;;;;;4.53;1.40;;;14.60;96.30;;;;;;5050455;28;20017;-85
2021/10/01 09:47:53;;;;;;;4.28;1.40;;;14.60;96.40;;;;;;5051574;28;20025;-85
2021/10/01 09:50:24;;;;;;;3.78;1.10;;;14.60;96.60;;;;;;5049873;28;20025;-85
2021/10/01 09:52:52;;;;;;;4.47;1.60;;;14.60;96.40;;;;;;5050408;28;20029;-85
2021/10/01 09:55:28;;;;;;;5.53;1.63;;;14.70;96.10;;;;;;5051843;28;20024;-85
2021/10/01 09:58:06;;;;;;;8.18;1.52;;;14.70;96.10;;;;;;5051446;28;20036;-85
2021/10/01 10:00:44;;;;;;;5.80;1.60;;;14.80;96.30;;;;;;5051144;28;20037;-86
2021/10/01 10:03:30;;;;;;;3.63;1.33;;;14.80;96.30;;;;;;5050334;28;20112;-86
2021/10/01 10:06:06;;;;;;;8.85;1.70;;;14.80;96.40;;;;;;5049909;28;20199;-86
2021/10/01 10:08:35;;;;;;;4.82;1.33;;;14.90;95.30;;;;;;5051596;28;20063;-86
2021/10/01 10:11:02;;;;;;;5.13;1.20;;;14.90;94.90;;;;;;5049777;28;20022;-85
2021/10/01 10:13:46;;;;;;;4.18;1.30;;;14.90;95.00;;;;;;5051298;28;20021;-85
2021/10/01 10:16:29;;;;;;;7.57;1.58;;;15.00;95.20;;;;;;5053666;28;20099;-85
2021/10/01 10:19:01;;;;;;;8.02;1.30;;;15.10;95.10;;;;;;5053345;28;20033;-85
2021/10/01 10:21:27;;;;;;;3.85;1.30;;;15.10;94.90;;;;;;5054022;28;20082;-86
2021/10/01 10:23:53;;;;;;;5.55;1.77;;;15.20;94.90;;;;;;5053951;28;20489;-85
2021/10/01 10:26:20;;;;;;;4.80;1.30;;;15.20;95.00;;;;;;5055190;28;20032;-84
2021/10/01 10:28:47;;;;;;;4.45;1.40;;;15.20;94.80;;;;;;5053631;28;20111;-85
2021/10/01 10:31:14;;;;;;;4.45;1.50;;;15.20;94.80;;;;;;5053451;28;20021;-85
2021/10/01 10:33:45;;;;;;;6.38;1.77;;;15.20;94.90;;;;;;5053703;28;20109;-85
2021/10/01 10:36:35;;;;;;;5.03;1.20;;;15.30;94.90;;;;;;5053736;28;20025;-86
2021/10/01 10:39:10;;;;;;;5.80;1.60;;;15.30;94.50;;;;;;5053028;28;20061;-86
2021/10/01 10:41:41;;;;;;;6.80;2.05;;;15.30;94.90;;;;;;5053521;28;20032;-85
2021/10/01 10:44:08;;;;;;;5.65;1.38;;;15.30;94.90;;;;;;5053575;28;20120;-85
2021/10/01 10:46:37;;;;;;;3.67;1.48;;;15.30;94.60;;;;;;5053510;28;20025;-85
2021/10/01 10:49:21;;;;;;;8.45;1.67;;;15.50;94.60;;;;;;5053056;28;20473;-85
2021/10/01 10:52:15;;;;;;;8.10;1.15;;;15.50;94.30;;;;;;5054778;28;20055;-86
2021/10/01 10:54:48;;;;;;;5.07;1.17;;;15.60;94.50;;;;;;5053458;28;20432;-86
2021/10/01 10:57:17;;;;;;;5.35;1.20;;;15.60;94.00;;;;;;5053143;28;20037;-86
2021/10/01 10:59:48;;;;;;;3.72;1.20;;;15.70;94.50;;;;;;5052712;28;20033;-85
2021/10/01 11:02:33;;;;;;;4.40;1.40;;;15.70;94.60;;;;;;5053399;28;20033;-85
2021/10/01 11:05:21;;;;;;;7.90;1.40;;;15.70;94.80;;;;;;5055246;28;20366;-86
2021/10/01 11:07:50;;;;;;;7.17;1.30;;;15.70;94.40;;;;;;5054629;28;20083;-85
2021/10/01 11:10:37;;;;;;;6.47;1.73;;;15.70;94.60;;;;;;5053036;28;20613;-85
2021/10/01 11:13:28;;;;;;;5.18;1.38;;;15.70;94.80;;;;;;5053782;28;20389;-85
2021/10/01 11:18:41;;;;;;;5.70;1.55;;;15.70;94.20;;;;;;5054255;28;20082;-86
2021/10/01 11:21:25;;;;;;;5.00;1.65;;;15.70;94.60;;;;;;5052806;28;20032;-87
2021/10/01 11:24:20;;;;;;;4.63;1.30;;;15.80;94.10;;;;;;5053314;28;20032;-85
2021/10/01 11:26:50;;;;;;;4.22;1.15;;;15.80;94.10;;;;;;5053945;28;20056;-85
2021/10/01 11:29:32;;;;;;;5.22;1.30;;;15.80;94.00;;;;;;5052548;28;20482;-85
2021/10/01 11:32:09;;;;;;;6.38;1.27;;;15.90;93.80;;;;;;5053256;28;20024;-85
2021/10/01 11:34:47;;;;;;;5.82;1.20;;;15.90;93.90;;;;;;5053297;28;20070;-85
2021/10/01 11:37:23;;;;;;;6.00;1.27;;;16.00;93.90;;;;;;5052903;28;20295;-85
2021/10/01 11:39:48;;;;;;;4.22;1.15;;;16.00;93.50;;;;;;5052552;28;20482;-84
2021/10/01 11:42:22;;;;;;;6.93;1.40;;;16.10;93.60;;;;;;5052968;28;20078;-85
2021/10/01 11:44:48;;;;;;;3.28;1.20;;;16.20;93.60;;;;;;5052619;28;20024;-85
2021/10/01 11:47:14;;;;;;;4.25;1.30;;;16.20;93.40;;;;;;5052162;28;20166;-85
2021/10/01 11:49:40;;;;;;;5.00;1.05;;;16.30;93.30;;;;;;5053046;28;20074;-85
2021/10/01 11:52:17;;;;;;;4.78;0.90;;;16.30;92.90;;;;;;5052177;28;20499;-86
2021/10/01 11:55:13;;;;;;;4.07;1.48;;;16.30;93.40;;;;;;5053633;28;20382;-85
2021/10/01 11:57:41;;;;;;;5.95;1.85;;;16.30;93.90;;;;;;5048390;28;20036;-85
2021/10/01 12:00:18;;;;;;;7.82;1.52;;;16.30;93.30;;;;;;5054910;28;20029;-85
2021/10/01 12:02:45;;;;;;;5.45;1.20;;;16.30;93.50;;;;;;5055649;28;20040;-84
2021/10/01 12:05:27;;;;;;;5.68;1.23;;;16.30;93.60;;;;;;5057454;28;20055;-85
2021/10/01 12:07:55;;;;;;;6.57;1.50;;;16.40;93.20;;;;;;5056243;28;20029;-86
2021/10/01 12:10:23;;;;;;;6.10;1.30;;;16.40;93.10;;;;;;5056392;28;20020;-86
2021/10/01 12:13:07;;;;;;;4.50;0.97;;;16.40;93.00;;;;;;5056987;28;20457;-86
2021/10/01 12:15:34;;;;;;;10.38;1.50;;;16.30;92.80;;;;;;5056867;28;20779;-86
2021/10/01 12:18:00;;;;;;;4.88;1.17;;;16.30;93.10;;;;;;5057966;28;20052;-85
2021/10/01 12:20:25;;;;;;;4.80;1.50;;;16.40;92.90;;;;;;5055685;28;20081;-85
2021/10/01 12:22:51;;;;;;;5.32;1.17;;;16.50;92.90;;;;;;5057121;28;20025;-85
2021/10/01 12:25:26;;;;;;;3.42;0.93;;;16.50;92.90;;;;;;5057275;28;20099;-85
2021/10/01 12:27:52;;;;;;;3.75;1.10;;;16.50;92.70;;;;;;5058268;28;20033;-85
2021/10/01 12:30:18;;;;;;;6.75;1.20;;;16.50;92.90;;;;;;5055956;28;20021;-85
2021/10/01 12:32:47;;;;;;;10.23;1.30;;;16.50;92.80;;;;;;5057306;28;20039;-85
2021/10/01 12:35:14;;;;;;;2.33;1.05;;;16.60;92.70;;;;;;5057486;28;20078;-85
2021/10/01 12:37:42;;;;;;;4.50;0.95;;;16.60;92.60;;;;;;5056199;28;20031;-85
2021/10/01 12:40:10;;;;;;;6.18;1.40;;;16.60;92.80;;;;;;5054335;28;20025;-85
2021/10/01 12:42:39;;;;;;;5.45;1.45;;;16.70;92.70;;;;;;5052401;28;20036;-85
2021/10/01 12:45:14;;;;;;;4.90;1.30;;;16.70;92.70;;;;;;5051777;28;20056;-86
2021/10/01 12:47:45;;;;;;;4.47;1.10;;;16.80;92.70;;;;;;5051977;28;20426;-85
2021/10/01 12:50:19;;;;;;;4.20;1.30;;;16.80;92.60;;;;;;5051375;28;20315;-85
2021/10/01 12:52:54;;;;;;;9.15;1.23;;;16.90;92.10;;;;;;5051738;28;20029;-86
2021/10/01 12:55:20;;;;;;;4.20;1.20;;;16.90;92.00;;;;;;5051599;28;20025;-85
2021/10/01 12:57:48;;;;;;;6.20;2.28;;;17.00;91.80;;;;;;5052883;28;20035;-85
2021/10/01 13:00:20;;;;;;;3.90;1.60;;;17.00;91.70;;;;;;5050937;28;20028;-85
2021/10/01 13:03:06;;;;;;;3.63;1.17;;;17.00;92.00;;;;;;5051685;28;20117;-85
2021/10/01 13:05:38;;;;;;;5.30;1.10;;;17.00;92.00;;;;;;5051963;28;20032;-85
2021/10/01 13:08:05;;;;;;;3.25;1.13;;;17.10;91.90;;;;;;5052389;28;20049;-85
2021/10/01 13:10:40;;;;;;;4.35;1.20;;;17.10;91.90;;;;;;5050258;28;20083;-86
2021/10/01 13:13:10;;;;;;;5.90;1.30;;;17.10;91.40;;;;;;5050729;28;20052;-85
2021/10/01 13:15:43;;;;;;;4.45;1.40;;;17.10;91.30;;;;;;5051941;28;20056;-85
2021/10/01 13:18:22;;;;;;;2.60;1.15;;;17.10;91.70;;;;;;5052549;28;20057;-86
2021/10/01 13:20:54;;;;;;;2.90;1.00;;;17.10;91.70;;;;;;5050244;28;20025;-86
2021/10/01 13:23:36;;;;;;;3.10;1.00;;;17.10;91.70;;;;;;5050660;28;20099;-85
2021/10/01 13:26:22;;;;;;;3.60;1.45;;;17.10;91.60;;;;;;5051833;28;20100;-86
2021/10/01 13:28:53;;;;;;;5.63;1.35;;;17.10;91.70;;;;;;5051616;28;20017;-86
2021/10/01 13:31:21;;;;;;;4.40;1.42;;;17.10;91.90;;;;;;5050629;28;20025;-85
2021/10/01 13:33:50;;;;;;;3.22;1.27;;;17.10;91.80;;;;;;5051993;28;20101;-85
2021/10/01 13:36:16;;;;;;;5.70;1.30;;;17.10;91.50;;;;;;5050675;28;20029;-86
2021/10/01 13:38:44;;;;;;;5.25;1.35;;;17.10;91.10;;;;;;5050315;28;20025;-85
2021/10/01 13:41:12;;;;;;;3.28;0.90;;;17.10;91.10;;;;;;5051408;28;20029;-87
2021/10/01 13:43:39;;;;;;;6.18;1.42;;;17.10;91.10;;;;;;5051875;28;20359;-85
2021/10/01 13:46:07;;;;;;;3.10;1.20;;;17.10;91.10;;;;;;5050407;28;20035;-86
2021/10/01 13:48:33;;;;;;;4.03;1.10;;;17.10;91.10;;;;;;5051678;28;20021;-85
2021/10/01 13:50:59;;;;;;;3.78;1.20;;;17.10;91.00;;;;;;5051965;28;20017;-86
2021/10/01 13:53:26;;;;;;;8.30;1.65;;;17.10;91.20;;;;;;5054456;28;20075;-85
2021/10/01 13:55:52;;;;;;;3.95;1.00;;;17.20;91.50;;;;;;5055668;28;20095;-85
2021/10/01 13:58:18;;;;;;;3.40;1.15;;;17.20;91.40;;;;;;5054362;28;20017;-86
2021/10/01 14:00:44;;;;;;;4.35;1.08;;;17.20;91.50;;;;;;5055268;28;20037;-85
2021/10/01 14:03:12;;;;;;;4.85;1.20;;;17.10;91.50;;;;;;5054336;28;20044;-87
2021/10/01 14:05:38;;;;;;;5.15;1.13;;;17.20;91.80;;;;;;5054300;28;20025;-85
2021/10/01 14:08:05;;;;;;;5.68;1.13;;;17.20;91.80;;;;;;5053972;28;20089;-85
2021/10/01 14:10:31;;;;;;;3.30;1.13;;;17.20;91.50;;;;;;5054972;28;20418;-87
2021/10/01 14:12:58;;;;;;;3.88;1.17;;;17.20;91.60;;;;;;5055411;28;20374;-86
2021/10/01 14:15:26;;;;;;;4.85;1.27;;;17.20;91.70;;;;;;5054236;28;20485;-86
2021/10/01 14:17:53;;;;;;;4.35;0.90;;;17.10;91.70;;;;;;5055296;28;20032;-86
2021/10/01 14:20:21;;;;;;;5.35;1.10;;;17.20;91.70;;;;;;5056985;28;20036;-85
2021/10/01 14:22:48;;;;;;;3.03;1.10;;;17.20;91.60;;;;;;5056975;28;20025;-85
2021/10/01 14:25:15;;;;;;;4.78;1.33;;;17.20;91.80;;;;;;5057825;28;20078;-85
2021/10/01 14:27:41;;;;;;;5.82;1.67;;;17.20;91.60;;;;;;5059910;28;20389;-85
2021/10/01 14:30:09;;;;;;;5.38;1.40;;;17.20;91.70;;;;;;5058340;28;20558;-85
2021/10/01 14:32:36;;;;;;;3.53;1.27;;;17.20;91.80;;;;;;5056998;28;20498;-86